Time,TemperatureF,DewpointF,PressureIn,WindDirection,WindDirectionDegrees,WindSpeedMPH,WindSpeedGustMPH,Humidity,HourlyPrecipIn,Conditions,Clouds,dailyrainin,SoftwareType,DateUTC
2013-05-20 00:21:00,59.0,55.0,29.92,North,0,0.0,-999.0,88,0.00,,,-99.99,,2013-05-20 07:21:00,
2013-05-20 00:32:00,59.0,55.0,29.92,North,0,0.0,-999.0,88,0.00,,,-99.99,,2013-05-20 07:32:00,
2013-05-20 00:42:00,59.0,55.0,29.92,North,0,0.0,-999.0,88,0.00,,,-99.99,,2013-05-20 07:42:00,
2013-05-20 00:52:00,59.0,55.0,29.92,North,0,0.0,-999.0,88,0.00,,,-99.99,,2013-05-20 07:52:00,
2013-05-20 01:21:00,58.0,55.0,29.91,North,0,0.0,-999.0,91,0.00,,,-99.99,,2013-05-20 08:21:00,
2013-05-20 01:31:00,58.0,55.0,29.91,North,0,0.0,-999.0,91,0.00,,,-99.99,,2013-05-20 08:31:00,
2013-05-20 01:41:00,58.0,55.0,29.91,North,0,0.0,-999.0,91,0.00,,,-99.99,,2013-05-20 08:41:00,
2013-05-20 01:51:00,58.0,55.0,29.91,North,0,0.0,-999.0,91,0.00,,,-99.99,,2013-05-20 08:51:00,
2013-05-20 02:21:00,57.0,54.0,29.91,North,0,0.0,-999.0,91,0.00,,,-99.99,,2013-05-20 09:21:00,
2013-05-20 02:32:00,57.0,54.0,29.91,North,0,0.0,-999.0,91,0.00,,,-99.99,,2013-05-20 09:32:00,
2013-05-20 02:43:00,57.0,54.0,29.91,North,0,0.0,-999.0,91,0.00,,,-99.99,,2013-05-20 09:43:00,
2013-05-20 02:52:00,57.0,54.0,29.91,North,0,0.0,-999.0,91,0.00,,,-99.99,,2013-05-20 09:52:00,
2013-05-20 03:22:00,58.0,56.0,29.91,ESE,120,2.0,-999.0,92,0.00,,,-99.99,,2013-05-20 10:22:00,
2013-05-20 03:32:00,58.0,56.0,29.91,ESE,120,2.0,-999.0,92,0.00,,,-99.99,,2013-05-20 10:32:00,
2013-05-20 03:42:00,58.0,56.0,29.91,ESE,120,2.0,-999.0,92,0.00,,,-99.99,,2013-05-20 10:42:00,
2013-05-20 03:52:00,58.0,56.0,29.91,ESE,120,2.0,-999.0,92,0.00,,,-99.99,,2013-05-20 10:52:00,
2013-05-20 04:21:00,57.0,55.0,29.91,SE,140,1.0,-999.0,93,0.00,,,-99.99,,2013-05-20 11:21:00,
2013-05-20 04:32:00,57.0,55.0,29.91,SE,140,1.0,-999.0,93,0.00,,,-99.99,,2013-05-20 11:32:00,
2013-05-20 04:41:00,57.0,55.0,29.91,SE,140,1.0,-999.0,93,0.00,,,-99.99,,2013-05-20 11:41:00,
2013-05-20 04:51:00,57.0,55.0,29.91,SE,140,1.0,-999.0,93,0.00,,,-99.99,,2013-05-20 11:51:00,
2013-05-20 05:21:00,57.0,55.0,29.91,East,100,1.0,-999.0,93,0.00,,,-99.99,,2013-05-20 12:21:00,
2013-05-20 05:31:00,57.0,55.0,29.91,East,100,1.0,-999.0,93,0.00,,,-99.99,,2013-05-20 12:31:00,
2013-05-20 05:41:00,57.0,55.0,29.91,East,100,1.0,-999.0,93,0.00,,,-99.99,,2013-05-20 12:41:00,
2013-05-20 05:51:00,57.0,55.0,29.91,East,100,1.0,-999.0,93,0.00,,,-99.99,,2013-05-20 12:51:00,
2013-05-20 06:22:00,57.0,55.0,29.92,SSE,160,1.0,-999.0,93,0.00,,,-99.99,,2013-05-20 13:22:00,
2013-05-20 06:31:00,57.0,55.0,29.92,SSE,160,1.0,-999.0,93,0.00,,,-99.99,,2013-05-20 13:31:00,
2013-05-20 06:41:00,57.0,55.0,29.92,SSE,160,1.0,-999.0,93,0.00,,,-99.99,,2013-05-20 13:41:00,
2013-05-20 06:52:00,57.0,55.0,29.92,SSE,160,1.0,-999.0,93,0.00,,,-99.99,,2013-05-20 13:52:00,
2013-05-20 07:22:00,57.0,55.0,29.93,North,0,0.0,-999.0,94,0.00,,,-99.99,,2013-05-20 14:22:00,
2013-05-20 07:31:00,57.0,55.0,29.93,North,0,0.0,-999.0,94,0.00,,,-99.99,,2013-05-20 14:31:00,
2013-05-20 07:41:00,57.0,55.0,29.93,North,0,0.0,-999.0,94,0.00,,,-99.99,,2013-05-20 14:41:00,
2013-05-20 07:52:00,57.0,55.0,29.93,North,0,0.0,-999.0,94,0.00,,,-99.99,,2013-05-20 14:52:00,
2013-05-20 08:21:00,58.0,56.0,29.95,SSE,160,1.0,-999.0,94,0.00,,,-99.99,,2013-05-20 15:21:00,
2013-05-20 08:33:00,58.0,56.0,29.95,SSE,160,1.0,-999.0,94,0.00,,,-99.99,,2013-05-20 15:33:00,
2013-05-20 08:42:00,58.0,56.0,29.95,SSE,160,1.0,-999.0,94,0.00,,,-99.99,,2013-05-20 15:42:00,
2013-05-20 08:53:00,58.0,56.0,29.95,SSE,160,1.0,-999.0,94,0.00,,,-99.99,,2013-05-20 15:53:00,
2013-05-20 09:22:00,59.0,57.0,29.95,North,0,0.0,-999.0,94,0.00,,,-99.99,,2013-05-20 16:22:00,
2013-05-20 09:33:00,59.0,57.0,29.95,North,0,0.0,-999.0,94,0.00,,,-99.99,,2013-05-20 16:33:00,
2013-05-20 09:42:00,59.0,57.0,29.95,North,0,0.0,-999.0,94,0.00,,,-99.99,,2013-05-20 16:42:00,
2013-05-20 09:52:00,59.0,57.0,29.95,North,0,0.0,-999.0,94,0.00,,,-99.99,,2013-05-20 16:52:00,
2013-05-20 10:22:00,63.0,58.0,29.95,West,280,4.0,-999.0,85,0.00,,,-99.99,,2013-05-20 17:22:00,
2013-05-20 10:33:00,63.0,58.0,29.95,West,280,4.0,-999.0,85,0.00,,,-99.99,,2013-05-20 17:33:00,
2013-05-20 10:45:00,63.0,58.0,29.95,West,280,4.0,-999.0,85,0.00,,,-99.99,,2013-05-20 17:45:00,
2013-05-20 10:53:00,63.0,58.0,29.95,West,280,4.0,-999.0,85,0.00,,,-99.99,,2013-05-20 17:53:00,
2013-05-20 10:55:00,65.0,59.0,29.95,West,270,3.0,-999.0,81,0.00,,,-99.99,,2013-05-20 17:55:00,
2013-05-20 11:23:00,65.0,59.0,29.95,West,270,3.0,-999.0,81,0.00,,,-99.99,,2013-05-20 18:23:00,
2013-05-20 11:32:00,65.0,59.0,29.95,West,270,3.0,-999.0,81,0.00,,,-99.99,,2013-05-20 18:32:00,
2013-05-20 11:41:00,65.0,59.0,29.95,West,270,3.0,-999.0,81,0.00,,,-99.99,,2013-05-20 18:41:00,
2013-05-20 12:21:00,68.0,60.0,29.94,West,280,6.0,-999.0,75,0.00,,,-99.99,,2013-05-20 19:21:00,
2013-05-20 12:32:00,68.0,60.0,29.94,West,280,6.0,-999.0,75,0.00,,,-99.99,,2013-05-20 19:32:00,
2013-05-20 12:41:00,68.0,60.0,29.94,West,280,6.0,-999.0,75,0.00,,,-99.99,,2013-05-20 19:41:00,
2013-05-20 12:52:00,68.0,60.0,29.94,West,280,6.0,-999.0,75,0.00,,,-99.99,,2013-05-20 19:52:00,
2013-05-20 13:21:00,69.0,60.0,29.93,West,270,3.0,-999.0,73,0.00,,,-99.99,,2013-05-20 20:21:00,
2013-05-20 13:32:00,69.0,60.0,29.93,West,270,3.0,-999.0,73,0.00,,,-99.99,,2013-05-20 20:32:00,
2013-05-20 13:42:00,69.0,60.0,29.93,West,270,3.0,-999.0,73,0.00,,,-99.99,,2013-05-20 20:42:00,
2013-05-20 13:51:00,69.0,60.0,29.93,West,270,3.0,-999.0,73,0.00,,,-99.99,,2013-05-20 20:51:00,
2013-05-20 14:21:00,71.0,58.0,29.93,West,280,4.0,-999.0,64,0.00,,,-99.99,,2013-05-20 21:21:00,
2013-05-20 14:32:00,71.0,58.0,29.93,West,280,4.0,-999.0,64,0.00,,,-99.99,,2013-05-20 21:32:00,
2013-05-20 14:43:00,71.0,58.0,29.93,West,280,4.0,-999.0,64,0.00,,,-99.99,,2013-05-20 21:43:00,
2013-05-20 14:53:00,71.0,58.0,29.93,West,280,4.0,-999.0,64,0.00,,,-99.99,,2013-05-20 21:53:00,
2013-05-20 15:23:00,72.0,58.0,29.92,West,280,7.0,-999.0,62,0.00,,,-99.99,,2013-05-20 22:23:00,
2013-05-20 15:33:00,72.0,58.0,29.92,West,280,7.0,-999.0,62,0.00,,,-99.99,,2013-05-20 22:33:00,
2013-05-20 15:42:00,72.0,58.0,29.92,West,280,7.0,-999.0,62,0.00,,,-99.99,,2013-05-20 22:42:00,
2013-05-20 15:52:00,72.0,58.0,29.92,West,280,7.0,-999.0,62,0.00,,,-99.99,,2013-05-20 22:52:00,
2013-05-20 16:22:00,70.0,59.0,29.91,West,270,7.0,-999.0,69,0.00,,,-99.99,,2013-05-20 23:22:00,
2013-05-20 16:32:00,70.0,59.0,29.91,West,270,7.0,-999.0,69,0.00,,,-99.99,,2013-05-20 23:32:00,
2013-05-20 16:42:00,70.0,59.0,29.91,West,270,7.0,-999.0,69,0.00,,,-99.99,,2013-05-20 23:42:00,
2013-05-20 16:52:00,70.0,59.0,29.91,West,270,7.0,-999.0,69,0.00,,,-99.99,,2013-05-20 23:52:00,
2013-05-20 17:21:00,69.0,60.0,29.90,SW,230,3.0,-999.0,72,0.00,,,-99.99,,2013-05-21 00:21:00,
2013-05-20 17:31:00,69.0,60.0,29.90,SW,230,3.0,-999.0,72,0.00,,,-99.99,,2013-05-21 00:31:00,
2013-05-20 17:41:00,69.0,60.0,29.90,SW,230,3.0,-999.0,72,0.00,,,-99.99,,2013-05-21 00:41:00,
2013-05-20 17:52:00,69.0,60.0,29.90,SW,230,3.0,-999.0,72,0.00,,,-99.99,,2013-05-21 00:52:00,
2013-05-20 18:21:00,70.0,60.0,29.89,WSW,240,5.0,-999.0,70,0.00,,,-99.99,,2013-05-21 01:21:00,
2013-05-20 18:32:00,70.0,60.0,29.89,WSW,240,5.0,-999.0,70,0.00,,,-99.99,,2013-05-21 01:32:00,
2013-05-20 18:42:00,70.0,60.0,29.89,WSW,240,5.0,-999.0,70,0.00,,,-99.99,,2013-05-21 01:42:00,
2013-05-20 18:52:00,70.0,60.0,29.89,WSW,240,5.0,-999.0,70,0.00,,,-99.99,,2013-05-21 01:52:00,
2013-05-20 19:21:00,66.0,58.0,29.89,SW,230,2.0,-999.0,76,0.00,,,-99.99,,2013-05-21 02:21:00,
2013-05-20 19:32:00,66.0,58.0,29.89,SW,230,2.0,-999.0,76,0.00,,,-99.99,,2013-05-21 02:32:00,
2013-05-20 19:41:00,66.0,58.0,29.89,SW,230,2.0,-999.0,76,0.00,,,-99.99,,2013-05-21 02:41:00,
2013-05-20 19:52:00,66.0,58.0,29.89,SW,230,2.0,-999.0,76,0.00,,,-99.99,,2013-05-21 02:52:00,
2013-05-20 20:21:00,62.0,56.0,29.89,WSW,250,2.0,-999.0,82,0.00,,,-99.99,,2013-05-21 03:21:00,
2013-05-20 20:33:00,62.0,56.0,29.89,WSW,250,2.0,-999.0,82,0.00,,,-99.99,,2013-05-21 03:33:00,
2013-05-20 20:43:00,62.0,56.0,29.89,WSW,250,2.0,-999.0,82,0.00,,,-99.99,,2013-05-21 03:43:00,
2013-05-20 20:53:00,62.0,56.0,29.89,WSW,250,2.0,-999.0,82,0.00,,,-99.99,,2013-05-21 03:53:00,
2013-05-20 21:23:00,60.0,57.0,29.91,North,0,0.0,-999.0,89,0.00,,,-99.99,,2013-05-21 04:23:00,
2013-05-20 21:33:00,60.0,57.0,29.91,North,0,0.0,-999.0,89,0.00,,,-99.99,,2013-05-21 04:33:00,
2013-05-20 21:42:00,60.0,57.0,29.91,North,0,0.0,-999.0,89,0.00,,,-99.99,,2013-05-21 04:42:00,
2013-05-20 21:52:00,60.0,57.0,29.91,North,0,0.0,-999.0,89,0.00,,,-99.99,,2013-05-21 04:52:00,
2013-05-20 22:21:00,59.0,56.0,29.92,East,100,7.0,-999.0,90,0.00,,,-99.99,,2013-05-21 05:21:00,
2013-05-20 22:32:00,59.0,56.0,29.92,East,100,7.0,-999.0,90,0.00,,,-99.99,,2013-05-21 05:32:00,
2013-05-20 22:42:00,59.0,56.0,29.92,East,100,7.0,-999.0,90,0.00,,,-99.99,,2013-05-21 05:42:00,
2013-05-20 22:51:00,59.0,56.0,29.92,East,100,7.0,-999.0,90,0.00,,,-99.99,,2013-05-21 05:51:00,
2013-05-20 23:21:00,59.0,56.0,29.92,North,0,0.0,-999.0,91,0.00,,,-99.99,,2013-05-21 06:21:00,
2013-05-20 23:32:00,59.0,56.0,29.92,North,0,0.0,-999.0,91,0.00,,,-99.99,,2013-05-21 06:32:00,
2013-05-20 23:41:00,59.0,56.0,29.92,North,0,0.0,-999.0,91,0.00,,,-99.99,,2013-05-21 06:41:00,
2013-05-20 23:51:00,59.0,56.0,29.92,North,0,0.0,-999.0,91,0.00,,,-99.99,,2013-05-21 06:51:00,